Time;durP1;ratioP1;P1;durP2;ratioP2;P2;SDS_P1;SDS_P2;PMS_P1;PMS_P2;Temp;Humidity;BMP_temperature;BMP_pressure;BME280_temperature;BME280_humidity;BME280_pressure;Samples;Min_cycle;Max_cycle;Signal;HPM_P1;HPM_P2
2021/10/06 00:01:36;;;;;;;5.20;1.63;;;13.70;86.50;;;;;;5114027;28;20442;-71
2021/10/06 00:04:03;;;;;;;8.33;1.00;;;13.80;86.20;;;;;;5114636;28;20428;-71
2021/10/06 00:06:31;;;;;;;5.30;1.70;;;13.80;85.90;;;;;;5113589;28;20472;-72
2021/10/06 00:08:57;;;;;;;6.07;1.30;;;13.80;85.90;;;;;;5114884;27;20459;-71
2021/10/06 00:11:24;;;;;;;3.50;1.33;;;13.80;85.90;;;;;;5115025;28;20446;-72
2021/10/06 00:13:53;;;;;;;4.17;1.27;;;13.70;85.70;;;;;;5114741;28;20453;-72
2021/10/06 00:16:21;;;;;;;3.43;1.00;;;13.70;85.60;;;;;;5114164;28;20435;-72
2021/10/06 00:18:48;;;;;;;4.10;1.20;;;13.70;85.60;;;;;;5115289;28;20489;-71
2021/10/06 00:21:15;;;;;;;6.63;1.57;;;13.70;85.50;;;;;;5115397;28;20458;-72
2021/10/06 00:23:42;;;;;;;2.13;1.30;;;13.70;85.00;;;;;;5114200;28;20446;-72
2021/10/06 00:26:09;;;;;;;6.93;1.40;;;13.60;85.30;;;;;;5114111;28;20449;-72
2021/10/06 00:28:36;;;;;;;4.30;1.10;;;13.50;85.30;;;;;;5114104;28;20564;-71
2021/10/06 00:31:04;;;;;;;4.50;1.47;;;13.50;85.80;;;;;;5114747;28;20537;-71
2021/10/06 00:33:31;;;;;;;5.43;1.40;;;13.50;86.40;;;;;;5113989;28;20450;-71
2021/10/06 00:35:58;;;;;;;3.97;1.27;;;13.50;86.30;;;;;;5114021;28;20454;-71
2021/10/06 00:38:25;;;;;;;8.03;1.90;;;13.40;86.30;;;;;;5113890;28;20490;-71
2021/10/06 00:40:53;;;;;;;3.50;1.40;;;13.40;86.80;;;;;;5113943;28;20443;-71
2021/10/06 00:43:20;;;;;;;4.40;1.13;;;13.40;87.10;;;;;;5113910;28;20443;-71
2021/10/06 00:45:46;;;;;;;4.47;1.10;;;13.30;87.20;;;;;;5113824;28;20438;-71
2021/10/06 00:48:15;;;;;;;2.63;1.47;;;13.30;87.40;;;;;;5113442;28;20937;-71
2021/10/06 00:50:42;;;;;;;4.60;1.40;;;13.30;87.20;;;;;;5113755;28;20439;-71
2021/10/06 00:53:09;;;;;;;2.90;1.40;;;13.30;87.10;;;;;;5113744;28;20439;-71
2021/10/06 00:55:38;;;;;;;9.80;1.97;;;13.30;87.10;;;;;;5113737;28;20443;-72
2021/10/06 00:58:05;;;;;;;6.97;1.60;;;13.30;87.00;;;;;;5113633;28;20471;-70
2021/10/06 01:00:32;;;;;;;4.80;1.83;;;13.30;86.70;;;;;;5113775;28;20500;-71
2021/10/06 01:02:58;;;;;;;6.70;1.70;;;13.30;86.90;;;;;;5113350;28;20442;-71
2021/10/06 01:05:28;;;;;;;9.13;1.77;;;13.30;87.00;;;;;;5113572;28;20940;-71
2021/10/06 01:07:54;;;;;;;6.47;1.87;;;13.30;87.10;;;;;;5113183;28;20462;-71
2021/10/06 01:10:21;;;;;;;5.70;1.47;;;13.30;87.10;;;;;;5113565;28;20473;-71
2021/10/06 01:12:48;;;;;;;9.13;1.93;;;13.20;86.70;;;;;;5113470;28;20470;-71
2021/10/06 01:15:15;;;;;;;6.90;3.00;;;13.30;87.30;;;;;;5115262;28;20451;-72
2021/10/06 01:17:42;;;;;;;9.57;2.00;;;13.20;87.10;;;;;;5113873;28;20802;-72
2021/10/06 01:20:11;;;;;;;3.60;1.43;;;13.20;87.10;;;;;;5118225;28;20494;-71
2021/10/06 01:22:39;;;;;;;6.53;1.80;;;13.30;87.30;;;;;;5117028;28;20944;-71
2021/10/06 01:25:09;;;;;;;2.63;1.30;;;13.30;87.20;;;;;;5117281;28;20462;-71
2021/10/06 01:27:36;;;;;;;4.83;1.70;;;13.20;86.90;;;;;;5117749;28;20817;-71
2021/10/06 01:30:04;;;;;;;7.00;2.17;;;13.20;87.40;;;;;;5116991;28;20501;-71
2021/10/06 01:32:35;;;;;;;5.23;1.60;;;13.20;87.40;;;;;;5117664;28;20439;-71
2021/10/06 01:35:03;;;;;;;4.70;1.40;;;13.20;87.40;;;;;;5118532;28;20430;-71
2021/10/06 01:37:31;;;;;;;5.43;1.90;;;13.20;87.30;;;;;;5117913;28;20450;-71
2021/10/06 01:40:00;;;;;;;4.83;1.50;;;13.20;87.30;;;;;;5116934;28;20482;-71
2021/10/06 01:42:27;;;;;;;6.53;1.47;;;13.20;87.50;;;;;;5117296;28;20443;-72
2021/10/06 01:44:53;;;;;;;4.13;1.80;;;13.20;87.70;;;;;;5118261;28;20445;-71
2021/10/06 01:47:21;;;;;;;7.13;1.80;;;13.20;87.50;;;;;;5116951;28;20443;-71
2021/10/06 01:49:48;;;;;;;7.60;2.20;;;13.20;87.50;;;;;;5116677;28;20466;-71
2021/10/06 01:52:17;;;;;;;9.10;2.10;;;13.20;87.40;;;;;;5116765;28;20845;-71
2021/10/06 01:54:43;;;;;;;6.10;1.50;;;13.20;87.80;;;;;;5116325;28;20993;-72
2021/10/06 01:57:13;;;;;;;10.87;2.00;;;13.20;87.70;;;;;;5116663;28;20822;-72
2021/10/06 01:59:41;;;;;;;2.60;1.27;;;13.20;87.70;;;;;;5116752;28;20475;-71
2021/10/06 02:02:09;;;;;;;8.80;1.47;;;13.20;87.30;;;;;;5116570;28;20447;-71
2021/10/06 02:04:35;;;;;;;6.50;1.77;;;13.20;87.30;;;;;;5116792;28;20447;-71
2021/10/06 02:07:02;;;;;;;10.03;2.33;;;13.20;87.30;;;;;;5116322;28;20466;-71
2021/10/06 02:09:29;;;;;;;2.30;1.40;;;13.20;87.40;;;;;;5116347;28;20819;-71
2021/10/06 02:11:56;;;;;;;6.50;1.33;;;13.20;87.50;;;;;;5115949;28;20443;-72
2021/10/06 02:14:24;;;;;;;4.30;1.70;;;13.20;87.80;;;;;;5116669;28;20500;-72
2021/10/06 02:16:51;;;;;;;8.23;2.27;;;13.20;87.60;;;;;;5116341;28;20450;-72
2021/10/06 02:19:17;;;;;;;11.80;1.80;;;13.20;87.50;;;;;;5116030;28;20483;-71
2021/10/06 02:21:44;;;;;;;8.70;1.80;;;13.20;87.30;;;;;;5116238;28;20449;-71
2021/10/06 02:24:11;;;;;;;8.20;1.93;;;13.20;87.50;;;;;;5116117;28;20833;-72
2021/10/06 02:26:37;;;;;;;3.80;1.47;;;13.20;87.60;;;;;;5116012;28;20447;-72
2021/10/06 02:29:04;;;;;;;6.03;1.73;;;13.20;87.80;;;;;;5115455;28;20466;-71
2021/10/06 02:31:32;;;;;;;4.70;1.20;;;13.20;87.80;;;;;;5115920;28;20447;-71
2021/10/06 02:33:59;;;;;;;7.30;1.70;;;13.20;87.50;;;;;;5115844;27;20454;-71
2021/10/06 02:36:26;;;;;;;4.40;2.07;;;13.10;87.20;;;;;;5115799;28;20470;-71
2021/10/06 02:38:53;;;;;;;5.53;1.67;;;13.10;87.20;;;;;;5115552;27;20474;-71
2021/10/06 02:41:19;;;;;;;4.47;1.53;;;13.20;87.60;;;;;;5115708;28;20435;-71
2021/10/06 02:43:46;;;;;;;7.73;1.70;;;13.10;87.10;;;;;;5115375;28;20438;-71
2021/10/06 02:46:13;;;;;;;7.30;2.23;;;13.10;87.40;;;;;;5115648;28;20446;-71
2021/10/06 02:48:41;;;;;;;6.73;1.60;;;13.10;87.20;;;;;;5115751;28;20455;-71
2021/10/06 02:51:08;;;;;;;10.10;1.93;;;13.10;87.20;;;;;;5115512;28;20451;-71
2021/10/06 02:53:34;;;;;;;11.00;1.80;;;13.10;86.90;;;;;;5115447;27;20438;-71
2021/10/06 02:56:01;;;;;;;7.93;1.77;;;13.10;87.10;;;;;;5115220;27;20431;-71
2021/10/06 02:58:28;;;;;;;12.60;2.47;;;13.10;87.10;;;;;;5114887;28;20999;-71
2021/10/06 03:00:54;;;;;;;4.27;1.93;;;13.10;87.00;;;;;;5115317;28;20454;-71
2021/10/06 03:03:21;;;;;;;4.40;1.60;;;13.00;86.80;;;;;;5114998;28;20821;-71
2021/10/06 03:05:49;;;;;;;7.87;1.93;;;13.00;86.80;;;;;;5115071;28;20435;-71
2021/10/06 03:08:16;;;;;;;10.63;2.90;;;13.10;87.10;;;;;;5115157;27;20428;-71
2021/10/06 03:10:43;;;;;;;6.67;2.07;;;13.10;87.20;;;;;;5115182;28;20474;-71
2021/10/06 03:13:10;;;;;;;6.43;1.90;;;13.10;86.90;;;;;;5114909;28;20443;-71
2021/10/06 03:15:36;;;;;;;5.83;2.10;;;13.10;86.90;;;;;;5115311;28;20459;-71
2021/10/06 03:18:03;;;;;;;3.43;1.43;;;13.10;86.50;;;;;;5115102;28;20446;-71
2021/10/06 03:20:30;;;;;;;5.47;1.67;;;13.10;86.20;;;;;;5115154;28;20475;-71
2021/10/06 03:22:58;;;;;;;6.00;1.60;;;13.10;86.50;;;;;;5115186;28;20450;-71
2021/10/06 03:25:24;;;;;;;6.70;1.70;;;13.10;86.30;;;;;;5114769;28;20963;-71
2021/10/06 03:27:51;;;;;;;7.67;2.33;;;13.10;86.60;;;;;;5115075;28;20449;-71
2021/10/06 03:30:18;;;;;;;10.00;2.30;;;13.10;86.50;;;;;;5114880;28;20463;-71
2021/10/06 03:32:45;;;;;;;7.53;1.53;;;13.10;86.40;;;;;;5114924;28;20443;-71
2021/10/06 03:35:12;;;;;;;4.87;1.77;;;13.10;86.50;;;;;;5114674;28;20940;-71
2021/10/06 03:37:39;;;;;;;9.20;1.80;;;13.10;86.20;;;;;;5114871;28;20448;-71
2021/10/06 03:40:09;;;;;;;4.80;1.40;;;13.10;86.50;;;;;;5114283;28;20478;-71
2021/10/06 03:42:36;;;;;;;7.30;1.60;;;13.10;86.50;;;;;;5114610;28;20438;-71
2021/10/06 03:45:03;;;;;;;9.53;1.77;;;13.00;86.20;;;;;;5115307;28;20446;-71
2021/10/06 03:47:30;;;;;;;8.20;1.87;;;13.10;86.40;;;;;;5114575;28;20450;-71
2021/10/06 03:49:57;;;;;;;8.60;1.87;;;13.00;86.10;;;;;;5114059;28;20991;-71
2021/10/06 03:52:23;;;;;;;4.03;1.70;;;13.00;86.10;;;;;;5114428;28;20446;-71
2021/10/06 03:54:50;;;;;;;6.07;1.43;;;13.00;86.50;;;;;;5114412;28;20449;-71
2021/10/06 03:57:18;;;;;;;3.70;1.50;;;13.00;86.50;;;;;;5114381;27;20446;-71
2021/10/06 03:59:45;;;;;;;6.70;1.97;;;13.00;86.60;;;;;;5114296;28;20494;-71
2021/10/06 04:02:12;;;;;;;8.03;1.83;;;13.00;86.70;;;;;;5114392;28;20443;-71
2021/10/06 04:04:38;;;;;;;5.80;2.20;;;13.00;86.60;;;;;;5114101;28;20943;-71
2021/10/06 04:07:05;;;;;;;7.77;1.60;;;13.00;86.20;;;;;;5114011;28;20457;-71
2021/10/06 04:09:32;;;;;;;7.23;1.90;;;13.10;86.50;;;;;;5114940;28;20963;-71
2021/10/06 04:11:59;;;;;;;8.90;2.13;;;13.10;86.40;;;;;;5114299;28;20446;-71
2021/10/06 04:14:27;;;;;;;5.30;1.53;;;13.10;86.10;;;;;;5114111;28;20447;-71
2021/10/06 04:16:54;;;;;;;6.50;1.73;;;13.10;86.40;;;;;;5114239;28;20443;-71
2021/10/06 04:19:20;;;;;;;3.37;1.77;;;13.10;86.00;;;;;;5113940;28;20836;-71
2021/10/06 04:21:47;;;;;;;3.10;1.40;;;13.10;86.20;;;;;;5113967;28;20469;-71
2021/10/06 04:24:14;;;;;;;6.60;1.70;;;13.20;86.00;;;;;;5113936;28;20470;-71
2021/10/06 04:26:40;;;;;;;2.47;1.30;;;13.20;85.80;;;;;;5113958;28;20445;-71
2021/10/06 04:29:07;;;;;;;4.43;1.40;;;13.20;85.90;;;;;;5113909;28;20830;-71
2021/10/06 04:31:35;;;;;;;11.70;1.80;;;13.10;86.10;;;;;;5113909;28;20443;-71
2021/10/06 04:34:02;;;;;;;6.30;1.40;;;13.10;86.10;;;;;;5113943;28;20443;-71
2021/10/06 04:36:29;;;;;;;3.03;1.10;;;13.10;86.30;;;;;;5113832;28;20820;-71
2021/10/06 04:38:56;;;;;;;5.27;1.70;;;13.20;86.60;;;;;;5113673;28;20463;-71
2021/10/06 04:41:22;;;;;;;2.50;1.33;;;13.20;86.10;;;;;;5114053;28;20469;-71
2021/10/06 04:43:49;;;;;;;4.07;1.10;;;13.20;85.60;;;;;;5113803;28;20473;-71
2021/10/06 04:46:18;;;;;;;5.87;1.50;;;13.20;86.00;;;;;;5113762;28;20443;-71
2021/10/06 04:48:47;;;;;;;6.20;1.57;;;13.30;86.10;;;;;;5113759;28;20470;-71
2021/10/06 04:51:13;;;;;;;2.93;1.50;;;13.20;85.60;;;;;;5113447;28;20889;-71
2021/10/06 04:53:40;;;;;;;5.30;1.30;;;13.30;85.40;;;;;;5117523;28;20442;-71
2021/10/06 04:56:07;;;;;;;6.00;1.23;;;13.30;85.10;;;;;;5117761;28;20811;-71
2021/10/06 04:58:34;;;;;;;3.27;1.37;;;13.20;84.60;;;;;;5117639;28;20463;-71
2021/10/06 05:01:00;;;;;;;4.30;1.60;;;13.20;84.70;;;;;;5117687;28;20834;-71
2021/10/06 05:03:27;;;;;;;5.63;1.70;;;13.20;84.50;;;;;;5117678;28;20457;-71
2021/10/06 05:05:55;;;;;;;8.00;1.67;;;13.20;84.50;;;;;;5117568;28;20458;-71
2021/10/06 05:08:22;;;;;;;4.10;1.60;;;13.20;84.60;;;;;;5117164;28;21004;-71
2021/10/06 05:10:48;;;;;;;3.40;1.37;;;13.20;84.60;;;;;;5117511;28;20443;-71
2021/10/06 05:13:15;;;;;;;5.97;1.30;;;13.20;84.60;;;;;;5117459;28;20450;-71
2021/10/06 05:15:42;;;;;;;3.80;1.50;;;13.20;84.50;;;;;;5117402;28;20446;-71
2021/10/06 05:18:09;;;;;;;2.83;1.37;;;13.30;84.60;;;;;;5117308;27;20442;-70
2021/10/06 05:20:35;;;;;;;5.00;1.80;;;13.20;84.10;;;;;;5117318;28;20478;-71
2021/10/06 05:23:04;;;;;;;5.10;1.43;;;13.30;84.20;;;;;;5117039;28;20944;-71
2021/10/06 05:25:31;;;;;;;4.63;1.57;;;13.30;84.10;;;;;;5117223;28;20457;-71
2021/10/06 05:27:57;;;;;;;9.03;1.80;;;13.20;84.30;;;;;;5117157;28;20446;-71
2021/10/06 05:30:24;;;;;;;3.43;1.37;;;13.30;84.50;;;;;;5117108;28;20465;-71
2021/10/06 05:32:51;;;;;;;6.50;1.50;;;13.30;84.50;;;;;;5117083;28;20465;-71
2021/10/06 05:35:18;;;;;;;5.13;1.13;;;13.30;84.60;;;;;;5116807;28;20454;-71
2021/10/06 05:37:46;;;;;;;3.70;1.30;;;13.30;84.50;;;;;;5116976;28;20454;-71
2021/10/06 05:40:15;;;;;;;4.37;1.47;;;13.30;85.00;;;;;;5116809;28;20483;-71
2021/10/06 05:42:42;;;;;;;6.03;1.60;;;13.30;84.90;;;;;;5116931;28;20450;-71
2021/10/06 05:45:10;;;;;;;3.83;1.60;;;13.30;84.80;;;;;;5116498;28;20838;-71
2021/10/06 05:47:37;;;;;;;3.57;1.20;;;13.30;85.00;;;;;;5116818;28;20449;-71
2021/10/06 05:50:04;;;;;;;5.60;1.50;;;13.30;85.00;;;;;;5116722;28;20808;-71
2021/10/06 05:52:33;;;;;;;10.60;3.40;;;13.40;84.80;;;;;;5116983;28;20443;-71
2021/10/06 05:54:59;;;;;;;5.80;1.63;;;13.30;84.70;;;;;;5117238;28;20439;-71
2021/10/06 05:57:28;;;;;;;4.80;1.73;;;13.30;84.70;;;;;;5116628;28;20449;-71
2021/10/06 05:59:54;;;;;;;3.67;1.30;;;13.40;84.90;;;;;;5116420;28;20478;-71
2021/10/06 06:02:21;;;;;;;4.10;1.73;;;13.40;85.40;;;;;;5116551;28;20526;-71
2021/10/06 06:04:48;;;;;;;3.30;1.67;;;13.30;85.10;;;;;;5115441;28;20454;-71
2021/10/06 06:07:15;;;;;;;5.03;1.93;;;13.20;85.40;;;;;;5116202;28;20454;-71
2021/10/06 06:09:42;;;;;;;2.80;1.10;;;13.20;85.50;;;;;;5116385;28;20516;-71
2021/10/06 06:12:10;;;;;;;5.90;3.13;;;13.30;86.00;;;;;;5116369;28;20450;-71
2021/10/06 06:14:39;;;;;;;3.30;1.57;;;13.30;85.80;;;;;;5116380;28;20473;-71
2021/10/06 06:17:07;;;;;;;6.10;2.00;;;13.20;86.80;;;;;;5116463;27;20451;-71
2021/10/06 06:19:33;;;;;;;6.80;2.00;;;13.20;87.60;;;;;;5116087;27;20463;-71
2021/10/06 06:22:00;;;;;;;8.67;1.83;;;13.20;88.10;;;;;;5116219;28;20479;-71
2021/10/06 06:24:27;;;;;;;6.50;1.80;;;13.10;88.90;;;;;;5115792;28;20439;-71
2021/10/06 06:26:54;;;;;;;3.80;1.40;;;13.10;89.20;;;;;;5116117;28;20447;-71
2021/10/06 06:29:21;;;;;;;5.17;1.87;;;13.10;88.60;;;;;;5116031;28;20474;-71
2021/10/06 06:31:50;;;;;;;4.20;1.40;;;13.00;88.80;;;;;;5116035;28;20445;-72
2021/10/06 06:34:17;;;;;;;7.77;1.97;;;13.00;89.00;;;;;;5116148;28;20446;-72
2021/10/06 06:36:43;;;;;;;3.60;1.57;;;13.00;89.60;;;;;;5115985;28;20492;-72
2021/10/06 06:39:10;;;;;;;5.60;1.70;;;12.90;90.10;;;;;;5116027;28;20458;-71
2021/10/06 06:41:37;;;;;;;4.40;1.53;;;12.90;90.00;;;;;;5115699;28;20506;-71
2021/10/06 06:44:04;;;;;;;6.00;1.80;;;12.90;90.20;;;;;;5115801;28;20794;-71
2021/10/06 06:46:31;;;;;;;3.63;1.70;;;12.80;90.20;;;;;;5115631;28;20443;-71
2021/10/06 06:48:59;;;;;;;7.70;2.47;;;12.80;90.50;;;;;;5115641;28;20467;-71
2021/10/06 06:51:26;;;;;;;4.30;1.47;;;12.80;90.90;;;;;;5115633;28;20427;-71
2021/10/06 06:53:53;;;;;;;8.30;1.50;;;12.80;90.90;;;;;;5115588;28;20446;-71
2021/10/06 06:56:20;;;;;;;3.40;1.33;;;12.70;90.70;;;;;;5115696;28;20449;-71
2021/10/06 06:58:47;;;;;;;5.60;1.60;;;12.60;90.80;;;;;;5115432;28;20467;-71
2021/10/06 07:01:14;;;;;;;5.23;2.00;;;12.60;91.10;;;;;;5115328;28;20479;-71
2021/10/06 07:03:41;;;;;;;6.70;1.80;;;12.60;91.20;;;;;;5115001;28;20951;-71
2021/10/06 07:06:09;;;;;;;10.10;1.87;;;12.60;91.20;;;;;;5114900;28;20463;-71
2021/10/06 07:08:35;;;;;;;2.67;1.30;;;12.60;91.30;;;;;;5115477;28;20455;-71
2021/10/06 07:11:02;;;;;;;3.13;1.50;;;12.60;91.70;;;;;;5115170;27;20466;-71
2021/10/06 07:13:30;;;;;;;4.60;1.57;;;12.60;91.40;;;;;;5115090;28;20470;-71
2021/10/06 07:15:57;;;;;;;7.93;1.50;;;12.70;91.60;;;;;;5113990;28;20473;-71
2021/10/06 07:18:24;;;;;;;8.83;1.70;;;12.70;91.50;;;;;;5114955;28;20474;-71
2021/10/06 07:20:50;;;;;;;5.73;1.50;;;12.80;91.20;;;;;;5114844;28;20474;-71
2021/10/06 07:23:18;;;;;;;7.50;1.80;;;12.80;91.50;;;;;;5115167;28;20454;-71
2021/10/06 07:25:45;;;;;;;5.97;1.60;;;12.90;91.20;;;;;;5114894;28;20451;-71
2021/10/06 07:28:12;;;;;;;5.57;1.73;;;13.00;90.80;;;;;;5114739;28;20446;-71
2021/10/06 07:30:39;;;;;;;4.67;1.60;;;13.10;90.80;;;;;;5114923;28;20442;-71
2021/10/06 07:33:06;;;;;;;4.13;1.30;;;13.20;90.40;;;;;;5114545;28;20431;-71
2021/10/06 07:35:33;;;;;;;5.80;1.60;;;13.30;90.10;;;;;;5114777;28;20447;-71
2021/10/06 07:37:59;;;;;;;3.97;1.30;;;13.30;89.90;;;;;;5114330;28;20447;-71
2021/10/06 07:40:28;;;;;;;3.60;1.47;;;13.40;90.00;;;;;;5114826;28;20482;-71
2021/10/06 07:42:54;;;;;;;6.50;1.43;;;13.40;89.80;;;;;;5114590;28;20446;-71
2021/10/06 07:45:21;;;;;;;9.20;2.20;;;13.40;89.30;;;;;;5114573;28;20443;-72
2021/10/06 07:47:48;;;;;;;6.00;1.47;;;13.40;89.10;;;;;;5114608;28;20450;-72
2021/10/06 07:50:15;;;;;;;5.07;1.30;;;13.40;89.80;;;;;;5114577;28;20480;-71
2021/10/06 07:52:42;;;;;;;3.00;1.57;;;13.40;89.80;;;;;;5114438;28;20533;-71
2021/10/06 07:55:09;;;;;;;5.40;1.67;;;13.40;89.60;;;;;;5114382;28;20482;-71
2021/10/06 07:57:37;;;;;;;3.10;1.20;;;13.40;89.10;;;;;;5114835;28;20454;-72
2021/10/06 08:00:08;;;;;;;3.73;1.47;;;13.40;88.90;;;;;;5114217;27;20474;-71
2021/10/06 08:02:35;;;;;;;4.50;1.77;;;13.40;89.20;;;;;;5114372;28;20431;-71
2021/10/06 08:05:02;;;;;;;5.13;1.20;;;13.40;88.40;;;;;;5113933;28;20947;-71
2021/10/06 08:07:28;;;;;;;2.77;1.10;;;13.40;88.80;;;;;;5114043;28;20455;-71
2021/10/06 08:09:55;;;;;;;3.77;1.30;;;13.40;88.90;;;;;;5114076;28;20470;-71
2021/10/06 08:12:22;;;;;;;3.63;1.13;;;13.50;88.90;;;;;;5113855;28;20929;-71
2021/10/06 08:14:50;;;;;;;4.17;1.53;;;13.60;87.70;;;;;;5114272;28;20450;-71
2021/10/06 08:17:17;;;;;;;2.53;1.30;;;13.80;88.30;;;;;;5114196;28;20538;-71
2021/10/06 08:19:43;;;;;;;6.83;2.10;;;13.90;88.10;;;;;;5114094;28;20494;-71
2021/10/06 08:22:10;;;;;;;4.70;1.50;;;14.00;85.80;;;;;;5114229;28;20474;-71
2021/10/06 08:24:38;;;;;;;3.77;1.23;;;14.10;85.40;;;;;;5114042;28;20438;-71
2021/10/06 08:27:05;;;;;;;3.73;1.50;;;14.10;85.10;;;;;;5114195;28;20488;-71
2021/10/06 08:29:32;;;;;;;5.67;1.43;;;14.10;84.40;;;;;;5113557;28;21003;-71
2021/10/06 08:32:00;;;;;;;5.00;2.00;;;14.10;85.30;;;;;;5113964;28;20434;-72
2021/10/06 08:34:27;;;;;;;6.80;1.70;;;14.00;85.30;;;;;;5114281;28;20447;-71
2021/10/06 08:36:53;;;;;;;4.87;1.27;;;14.00;85.70;;;;;;5114174;28;20443;-71
2021/10/06 08:39:20;;;;;;;4.73;1.13;;;13.90;85.40;;;;;;5113638;28;20451;-71
2021/10/06 08:41:47;;;;;;;4.37;1.13;;;13.90;84.60;;;;;;5113907;28;20838;-72
2021/10/06 08:44:14;;;;;;;3.10;1.90;;;13.90;85.30;;;;;;5113985;28;20491;-72
2021/10/06 08:46:41;;;;;;;3.80;1.10;;;13.80;84.90;;;;;;5113846;28;20453;-72
2021/10/06 08:49:09;;;;;;;4.60;1.10;;;13.80;83.80;;;;;;5114089;28;20466;-71
2021/10/06 08:51:36;;;;;;;3.80;1.50;;;13.90;85.90;;;;;;5113514;28;20439;-71
2021/10/06 08:54:02;;;;;;;4.70;1.50;;;13.90;85.10;;;;;;5113719;28;20455;-72
2021/10/06 08:56:29;;;;;;;4.07;1.10;;;14.10;85.10;;;;;;5113965;28;20427;-69
2021/10/06 08:58:57;;;;;;;2.53;1.00;;;14.10;84.00;;;;;;5113775;28;20482;-69
2021/10/06 09:01:25;;;;;;;2.10;1.00;;;14.00;84.40;;;;;;5113717;28;20485;-69
2021/10/06 09:03:56;;;;;;;5.30;1.43;;;14.00;84.60;;;;;;5113462;28;20442;-69
2021/10/06 09:06:35;;;;;;;3.80;1.10;;;13.90;84.80;;;;;;5113441;28;20488;-70
2021/10/06 09:09:12;;;;;;;2.90;1.40;;;13.90;85.30;;;;;;5113648;28;20466;-69
2021/10/06 09:11:40;;;;;;;4.77;1.17;;;13.90;85.50;;;;;;5113726;28;20430;-71
2021/10/06 09:14:07;;;;;;;3.70;1.17;;;13.90;85.00;;;;;;5113434;28;20451;-70
2021/10/06 09:16:37;;;;;;;6.20;0.90;;;14.00;85.70;;;;;;5113724;28;20788;-70
2021/10/06 09:19:04;;;;;;;2.93;1.20;;;14.10;85.60;;;;;;5113575;28;20561;-70
2021/10/06 09:21:35;;;;;;;3.27;1.07;;;14.10;86.00;;;;;;5115504;28;20486;-70
2021/10/06 09:24:03;;;;;;;3.33;1.17;;;14.10;85.70;;;;;;5113663;28;20429;-69
2021/10/06 09:26:30;;;;;;;4.20;1.20;;;14.10;87.60;;;;;;5114254;28;20445;-69
2021/10/06 09:28:56;;;;;;;3.13;1.10;;;14.00;87.20;;;;;;5113485;28;20470;-69
2021/10/06 09:31:26;;;;;;;2.53;1.20;;;13.80;88.10;;;;;;5113560;28;20434;-69
2021/10/06 09:33:54;;;;;;;1.93;1.30;;;13.70;89.50;;;;;;5113657;28;20442;-70
2021/10/06 09:36:24;;;;;;;3.33;1.60;;;13.70;89.90;;;;;;5113588;28;20438;-70
2021/10/06 09:38:55;;;;;;;5.20;1.23;;;13.70;90.00;;;;;;5114021;28;20471;-70
2021/10/06 09:41:27;;;;;;;8.40;3.40;;;13.70;90.10;;;;;;5117034;28;20515;-70
2021/10/06 09:43:58;;;;;;;8.00;2.23;;;13.70;90.00;;;;;;5116957;28;20438;-70
2021/10/06 09:46:25;;;;;;;7.50;1.60;;;13.70;90.20;;;;;;5116907;28;20439;-70
2021/10/06 09:48:52;;;;;;;2.57;1.80;;;13.70;90.20;;;;;;5116580;28;21028;-70
2021/10/06 09:51:25;;;;;;;4.37;1.40;;;13.70;90.60;;;;;;5116620;28;20438;-70
2021/10/06 09:53:54;;;;;;;3.40;1.43;;;13.70;90.10;;;;;;5116826;28;20420;-70
2021/10/06 09:56:21;;;;;;;3.20;1.43;;;13.60;90.20;;;;;;5116687;28;20508;-70
2021/10/06 09:59:00;;;;;;;2.47;1.53;;;13.60;90.40;;;;;;5117171;28;20549;-70
2021/10/06 10:01:28;;;;;;;2.53;1.23;;;13.60;90.50;;;;;;5117582;28;20463;-70
2021/10/06 10:03:55;;;;;;;3.53;1.20;;;13.60;90.40;;;;;;5117131;28;20450;-70
2021/10/06 10:06:22;;;;;;;2.40;1.30;;;13.60;90.70;;;;;;5116637;28;20458;-70
2021/10/06 10:08:49;;;;;;;1.63;1.20;;;13.70;90.70;;;;;;5116588;28;20462;-69
2021/10/06 10:11:18;;;;;;;4.53;1.40;;;13.60;90.60;;;;;;5117257;28;20446;-70
2021/10/06 10:13:45;;;;;;;1.70;1.10;;;13.60;90.70;;;;;;5116352;28;20443;-71
2021/10/06 10:16:12;;;;;;;3.77;1.30;;;13.50;91.30;;;;;;5116400;27;20446;-70
2021/10/06 10:18:39;;;;;;;2.60;1.10;;;13.60;91.60;;;;;;5116660;28;20470;-70
2021/10/06 10:21:07;;;;;;;6.20;1.40;;;13.50;91.30;;;;;;5116347;28;20471;-70
2021/10/06 10:23:36;;;;;;;1.37;0.93;;;13.50;91.60;;;;;;5116354;28;20526;-70
2021/10/06 10:26:03;;;;;;;2.43;1.70;;;13.50;91.60;;;;;;5116518;28;20518;-71
2021/10/06 10:28:40;;;;;;;2.40;1.40;;;13.60;91.60;;;;;;5115954;28;20825;-70
2021/10/06 10:31:07;;;;;;;2.63;1.50;;;13.60;91.90;;;;;;5116234;28;20430;-70
2021/10/06 10:33:40;;;;;;;4.93;1.57;;;13.50;91.70;;;;;;5116155;28;20419;-70
2021/10/06 10:36:47;;;;;;;3.13;1.67;;;13.60;92.00;;;;;;5116050;28;20445;-70
2021/10/06 10:39:59;;;;;;;4.80;1.53;;;13.60;91.90;;;;;;5116150;28;20466;-69
2021/10/06 10:42:58;;;;;;;4.73;1.63;;;13.60;92.20;;;;;;5115878;28;20505;-70
2021/10/06 10:45:43;;;;;;;3.13;1.47;;;13.60;92.40;;;;;;5115959;27;20480;-70
2021/10/06 10:48:12;;;;;;;3.80;1.63;;;13.70;92.30;;;;;;5115917;28;20434;-69
2021/10/06 10:51:00;;;;;;;3.07;1.77;;;13.70;92.40;;;;;;5115485;28;20450;-70
2021/10/06 10:54:02;;;;;;;1.80;1.40;;;13.60;92.10;;;;;;5115272;28;20947;-70
2021/10/06 10:56:52;;;;;;;2.23;1.50;;;13.70;92.10;;;;;;5115559;28;20442;-71
2021/10/06 10:59:23;;;;;;;2.40;1.90;;;13.70;92.30;;;;;;5115875;28;20607;-70
2021/10/06 11:01:53;;;;;;;1.73;1.57;;;13.70;92.60;;;;;;5115500;28;20463;-70
2021/10/06 11:04:23;;;;;;;5.87;1.53;;;13.70;92.30;;;;;;5115517;28;20466;-70
2021/10/06 11:06:52;;;;;;;3.50;2.10;;;13.70;92.40;;;;;;5115551;28;20461;-70
2021/10/06 11:09:40;;;;;;;2.20;1.97;;;13.80;92.60;;;;;;5115261;28;20463;-70
2021/10/06 11:12:32;;;;;;;6.70;2.47;;;13.80;92.50;;;;;;5115341;28;20434;-70
2021/10/06 11:15:29;;;;;;;2.80;1.80;;;13.90;92.20;;;;;;5100021;28;20451;-70
2021/10/06 11:18:19;;;;;;;3.40;2.13;;;13.90;92.00;;;;;;5114872;28;20908;-71
2021/10/06 11:20:53;;;;;;;4.60;2.50;;;13.80;91.70;;;;;;5114902;28;20435;-70
2021/10/06 11:23:45;;;;;;;2.10;1.83;;;13.80;91.90;;;;;;5114837;28;20968;-70
2021/10/06 11:26:16;;;;;;;2.33;1.77;;;13.70;91.50;;;;;;5100387;28;20537;-72
2021/10/06 11:28:44;;;;;;;3.23;2.23;;;13.60;91.80;;;;;;5115052;28;20459;-70
2021/10/06 11:31:12;;;;;;;3.07;2.00;;;13.60;91.90;;;;;;5115104;28;20423;-70
2021/10/06 11:33:39;;;;;;;3.10;2.70;;;13.60;92.30;;;;;;5114578;28;20446;-70
2021/10/06 11:36:11;;;;;;;3.53;1.80;;;13.50;92.10;;;;;;5114897;28;20543;-71
2021/10/06 11:38:39;;;;;;;4.33;1.73;;;13.60;92.10;;;;;;5114756;28;20467;-70
2021/10/06 11:41:06;;;;;;;1.90;1.60;;;13.60;92.10;;;;;;5114599;28;20826;-70
2021/10/06 11:43:45;;;;;;;3.50;2.83;;;13.70;92.30;;;;;;5114688;28;20451;-70
2021/10/06 11:46:26;;;;;;;3.30;1.87;;;13.70;92.00;;;;;;5114779;28;20506;-70
2021/10/06 11:48:55;;;;;;;2.70;1.80;;;13.80;92.20;;;;;;5114804;28;20546;-70
2021/10/06 11:51:37;;;;;;;4.70;1.90;;;13.90;91.80;;;;;;5114714;28;20439;-70
2021/10/06 11:54:04;;;;;;;3.67;2.00;;;14.00;91.30;;;;;;5114528;28;20769;-70
2021/10/06 11:56:33;;;;;;;4.23;2.17;;;14.10;91.30;;;;;;5115094;28;20451;-70
2021/10/06 11:59:12;;;;;;;3.93;2.10;;;14.20;91.00;;;;;;5114112;28;20470;-70
2021/10/06 12:01:41;;;;;;;2.93;1.70;;;14.20;90.90;;;;;;5113585;28;20992;-70
2021/10/06 12:04:13;;;;;;;3.90;1.67;;;14.30;90.70;;;;;;5114454;28;20454;-70
2021/10/06 12:06:42;;;;;;;2.50;1.80;;;14.40;90.40;;;;;;5114272;28;20454;-70
2021/10/06 12:09:10;;;;;;;2.67;1.80;;;14.40;90.50;;;;;;5113947;28;20995;-70
2021/10/06 12:11:39;;;;;;;5.47;1.80;;;14.30;90.30;;;;;;5114030;28;20446;-70
2021/10/06 12:14:34;;;;;;;2.07;1.87;;;14.20;90.70;;;;;;5114254;28;20801;-70
2021/10/06 12:17:07;;;;;;;9.90;2.00;;;14.20;90.90;;;;;;5078040;27;20458;-70
2021/10/06 12:19:35;;;;;;;2.10;1.87;;;14.10;91.20;;;;;;5114004;28;20470;-71
2021/10/06 12:22:03;;;;;;;6.47;2.00;;;14.10;91.50;;;;;;5114129;27;20475;-70
2021/10/06 12:24:31;;;;;;;2.70;2.13;;;14.10;91.50;;;;;;5113799;28;20831;-70
2021/10/06 12:26:58;;;;;;;4.10;2.00;;;14.10;91.60;;;;;;5114443;28;20430;-70
2021/10/06 12:29:27;;;;;;;4.57;1.70;;;14.10;91.50;;;;;;5114683;28;20809;-70
2021/10/06 12:32:11;;;;;;;6.90;2.60;;;14.10;91.40;;;;;;5114032;28;20991;-70
2021/10/06 12:34:38;;;;;;;2.53;2.00;;;14.20;91.30;;;;;;5114126;28;20436;-70
2021/10/06 12:37:06;;;;;;;2.30;2.10;;;14.30;91.20;;;;;;5114018;28;20443;-70
2021/10/06 12:39:32;;;;;;;4.13;2.00;;;14.30;91.00;;;;;;5113478;28;21004;-70
2021/10/06 12:42:08;;;;;;;2.50;2.30;;;14.30;90.90;;;;;;5113847;28;20467;-71
2021/10/06 12:44:41;;;;;;;6.60;1.77;;;14.40;90.80;;;;;;5113942;28;20427;-70
2021/10/06 12:47:13;;;;;;;2.97;1.80;;;14.50;91.00;;;;;;5114169;28;20427;-70
2021/10/06 12:49:54;;;;;;;6.43;2.50;;;14.50;90.50;;;;;;5113556;28;20998;-70
2021/10/06 12:52:25;;;;;;;3.57;2.30;;;14.60;90.60;;;;;;5113917;28;20928;-70
2021/10/06 12:55:09;;;;;;;3.30;2.00;;;14.60;90.60;;;;;;5114429;28;20423;-70